sensor_id;sensor_type;location;lat;lon;timestamp;P1;durP1;ratioP1;P2;durP2;ratioP2
8187;SDS011;4135;49.184;9.722;2022-07-30T00:00:36;4.88;;;3.80;;
8187;SDS011;4135;49.184;9.722;2022-07-30T00:03:05;4.07;;;3.72;;
8187;SDS011;4135;49.184;9.722;2022-07-30T00:05:35;4.43;;;3.55;;
8187;SDS011;4135;49.184;9.722;2022-07-30T00:08:04;5.05;;;4.15;;
8187;SDS011;4135;49.184;9.722;2022-07-30T00:10:34;3.83;;;3.60;;
8187;SDS011;4135;49.184;9.722;2022-07-30T00:13:04;6.13;;;4.60;;
8187;SDS011;4135;49.184;9.722;2022-07-30T00:15:34;6.55;;;4.80;;
8187;SDS011;4135;49.184;9.722;2022-07-30T00:18:03;4.68;;;4.38;;
8187;SDS011;4135;49.184;9.722;2022-07-30T00:20:33;5.95;;;4.38;;
8187;SDS011;4135;49.184;9.722;2022-07-30T00:23:03;6.82;;;4.95;;
8187;SDS011;4135;49.184;9.722;2022-07-30T00:25:32;5.50;;;4.60;;
8187;SDS011;4135;49.184;9.722;2022-07-30T00:28:02;9.48;;;4.75;;
8187;SDS011;4135;49.184;9.722;2022-07-30T00:30:31;7.03;;;4.75;;
8187;SDS011;4135;49.184;9.722;2022-07-30T00:33:01;6.32;;;4.50;;
8187;SDS011;4135;49.184;9.722;2022-07-30T00:35:31;8.38;;;4.50;;
8187;SDS011;4135;49.184;9.722;2022-07-30T00:38:00;6.90;;;4.55;;
8187;SDS011;4135;49.184;9.722;2022-07-30T00:40:30;7.95;;;4.88;;
8187;SDS011;4135;49.184;9.722;2022-07-30T00:42:59;5.63;;;4.28;;
8187;SDS011;4135;49.184;9.722;2022-07-30T00:45:29;6.40;;;4.25;;
8187;SDS011;4135;49.184;9.722;2022-07-30T00:47:58;6.07;;;4.38;;
8187;SDS011;4135;49.184;9.722;2022-07-30T00:50:29;6.40;;;4.00;;
8187;SDS011;4135;49.184;9.722;2022-07-30T00:52:58;6.32;;;3.65;;
8187;SDS011;4135;49.184;9.722;2022-07-30T00:55:28;4.13;;;3.75;;
8187;SDS011;4135;49.184;9.722;2022-07-30T00:57:59;10.10;;;4.35;;
8187;SDS011;4135;49.184;9.722;2022-07-30T01:00:28;5.20;;;3.85;;
8187;SDS011;4135;49.184;9.722;2022-07-30T01:02:58;6.50;;;4.35;;
8187;SDS011;4135;49.184;9.722;2022-07-30T01:05:27;9.02;;;4.55;;
8187;SDS011;4135;49.184;9.722;2022-07-30T01:07:57;5.70;;;4.20;;
8187;SDS011;4135;49.184;9.722;2022-07-30T01:10:26;5.13;;;4.35;;
8187;SDS011;4135;49.184;9.722;2022-07-30T01:12:56;5.15;;;3.83;;
8187;SDS011;4135;49.184;9.722;2022-07-30T01:15:27;7.78;;;3.97;;
8187;SDS011;4135;49.184;9.722;2022-07-30T01:17:58;6.38;;;4.57;;
8187;SDS011;4135;49.184;9.722;2022-07-30T01:20:32;5.50;;;3.58;;
8187;SDS011;4135;49.184;9.722;2022-07-30T01:25:53;5.40;;;4.07;;
8187;SDS011;4135;49.184;9.722;2022-07-30T01:28:27;4.50;;;3.55;;
8187;SDS011;4135;49.184;9.722;2022-07-30T01:31:08;6.15;;;3.92;;
8187;SDS011;4135;49.184;9.722;2022-07-30T01:33:44;5.88;;;4.10;;
8187;SDS011;4135;49.184;9.722;2022-07-30T01:36:17;6.18;;;3.55;;
8187;SDS011;4135;49.184;9.722;2022-07-30T01:38:50;8.13;;;4.70;;
8187;SDS011;4135;49.184;9.722;2022-07-30T01:41:20;5.75;;;4.63;;
8187;SDS011;4135;49.184;9.722;2022-07-30T01:43:51;6.57;;;5.18;;
8187;SDS011;4135;49.184;9.722;2022-07-30T01:46:21;3.88;;;3.70;;
8187;SDS011;4135;49.184;9.722;2022-07-30T01:48:53;7.82;;;5.38;;
8187;SDS011;4135;49.184;9.722;2022-07-30T01:51:25;6.15;;;4.03;;
8187;SDS011;4135;49.184;9.722;2022-07-30T01:53:56;7.18;;;5.10;;
8187;SDS011;4135;49.184;9.722;2022-07-30T01:56:27;7.53;;;5.10;;
8187;SDS011;4135;49.184;9.722;2022-07-30T01:58:58;4.90;;;4.20;;
8187;SDS011;4135;49.184;9.722;2022-07-30T02:01:28;5.82;;;4.88;;
8187;SDS011;4135;49.184;9.722;2022-07-30T02:03:59;8.02;;;4.63;;
8187;SDS011;4135;49.184;9.722;2022-07-30T02:06:31;8.20;;;5.53;;
8187;SDS011;4135;49.184;9.722;2022-07-30T02:09:05;6.45;;;4.90;;
8187;SDS011;4135;49.184;9.722;2022-07-30T02:11:35;8.35;;;4.47;;
8187;SDS011;4135;49.184;9.722;2022-07-30T02:14:28;7.28;;;5.30;;
8187;SDS011;4135;49.184;9.722;2022-07-30T02:17:07;6.68;;;4.78;;
8187;SDS011;4135;49.184;9.722;2022-07-30T02:19:41;6.00;;;4.75;;
8187;SDS011;4135;49.184;9.722;2022-07-30T02:22:13;7.80;;;5.63;;
8187;SDS011;4135;49.184;9.722;2022-07-30T02:24:46;7.47;;;5.22;;
8187;SDS011;4135;49.184;9.722;2022-07-30T02:27:19;8.20;;;5.53;;
8187;SDS011;4135;49.184;9.722;2022-07-30T02:29:54;7.40;;;4.95;;
8187;SDS011;4135;49.184;9.722;2022-07-30T02:32:28;8.93;;;5.45;;
8187;SDS011;4135;49.184;9.722;2022-07-30T02:35:03;7.13;;;4.97;;
8187;SDS011;4135;49.184;9.722;2022-07-30T02:37:38;8.63;;;5.22;;
8187;SDS011;4135;49.184;9.722;2022-07-30T02:40:14;9.82;;;5.68;;
8187;SDS011;4135;49.184;9.722;2022-07-30T02:42:46;8.73;;;5.38;;
8187;SDS011;4135;49.184;9.722;2022-07-30T02:45:18;5.78;;;4.88;;
8187;SDS011;4135;49.184;9.722;2022-07-30T02:47:57;6.22;;;5.15;;
8187;SDS011;4135;49.184;9.722;2022-07-30T02:50:30;5.13;;;4.82;;
8187;SDS011;4135;49.184;9.722;2022-07-30T02:53:00;8.30;;;6.20;;
8187;SDS011;4135;49.184;9.722;2022-07-30T02:55:32;5.78;;;4.63;;
8187;SDS011;4135;49.184;9.722;2022-07-30T02:58:04;6.22;;;4.97;;
8187;SDS011;4135;49.184;9.722;2022-07-30T03:00:35;7.78;;;5.07;;
8187;SDS011;4135;49.184;9.722;2022-07-30T03:03:06;8.05;;;4.50;;
8187;SDS011;4135;49.184;9.722;2022-07-30T03:05:38;9.20;;;5.45;;
8187;SDS011;4135;49.184;9.722;2022-07-30T03:08:09;6.30;;;5.20;;
8187;SDS011;4135;49.184;9.722;2022-07-30T03:10:40;7.05;;;5.18;;
8187;SDS011;4135;49.184;9.722;2022-07-30T03:13:12;5.00;;;4.47;;
8187;SDS011;4135;49.184;9.722;2022-07-30T03:15:44;6.47;;;5.40;;
8187;SDS011;4135;49.184;9.722;2022-07-30T03:18:17;5.32;;;4.72;;
8187;SDS011;4135;49.184;9.722;2022-07-30T03:20:49;7.78;;;5.32;;
8187;SDS011;4135;49.184;9.722;2022-07-30T03:23:21;8.50;;;4.78;;
8187;SDS011;4135;49.184;9.722;2022-07-30T03:25:54;7.85;;;4.90;;
8187;SDS011;4135;49.184;9.722;2022-07-30T03:28:29;5.97;;;4.95;;
8187;SDS011;4135;49.184;9.722;2022-07-30T03:31:00;8.80;;;5.85;;
8187;SDS011;4135;49.184;9.722;2022-07-30T03:33:31;7.10;;;5.65;;
8187;SDS011;4135;49.184;9.722;2022-07-30T03:36:02;8.32;;;5.82;;
8187;SDS011;4135;49.184;9.722;2022-07-30T03:38:36;7.88;;;5.63;;
8187;SDS011;4135;49.184;9.722;2022-07-30T03:41:07;8.18;;;6.28;;
8187;SDS011;4135;49.184;9.722;2022-07-30T03:43:38;10.95;;;5.97;;
8187;SDS011;4135;49.184;9.722;2022-07-30T03:46:08;6.82;;;5.90;;
8187;SDS011;4135;49.184;9.722;2022-07-30T03:48:39;7.10;;;5.63;;
8187;SDS011;4135;49.184;9.722;2022-07-30T03:51:10;7.88;;;6.05;;
8187;SDS011;4135;49.184;9.722;2022-07-30T03:53:41;9.35;;;5.78;;
8187;SDS011;4135;49.184;9.722;2022-07-30T03:56:11;11.20;;;6.22;;
8187;SDS011;4135;49.184;9.722;2022-07-30T03:58:42;8.18;;;6.43;;
8187;SDS011;4135;49.184;9.722;2022-07-30T04:01:11;7.82;;;6.68;;
8187;SDS011;4135;49.184;9.722;2022-07-30T04:03:41;9.50;;;7.15;;
8187;SDS011;4135;49.184;9.722;2022-07-30T04:06:11;7.30;;;6.10;;
8187;SDS011;4135;49.184;9.722;2022-07-30T04:08:40;12.02;;;7.47;;
8187;SDS011;4135;49.184;9.722;2022-07-30T04:11:10;7.57;;;6.57;;
8187;SDS011;4135;49.184;9.722;2022-07-30T04:13:39;11.75;;;8.38;;
8187;SDS011;4135;49.184;9.722;2022-07-30T04:16:19;12.10;;;7.32;;
8187;SDS011;4135;49.184;9.722;2022-07-30T04:18:57;12.60;;;7.97;;
8187;SDS011;4135;49.184;9.722;2022-07-30T04:21:27;13.48;;;7.28;;
8187;SDS011;4135;49.184;9.722;2022-07-30T04:24:00;9.38;;;7.28;;
8187;SDS011;4135;49.184;9.722;2022-07-30T04:26:30;9.43;;;6.93;;
8187;SDS011;4135;49.184;9.722;2022-07-30T04:29:03;13.43;;;7.30;;
8187;SDS011;4135;49.184;9.722;2022-07-30T04:31:35;8.45;;;6.53;;
8187;SDS011;4135;49.184;9.722;2022-07-30T04:34:04;9.25;;;6.97;;
8187;SDS011;4135;49.184;9.722;2022-07-30T04:36:34;9.00;;;7.22;;
8187;SDS011;4135;49.184;9.722;2022-07-30T04:39:05;8.40;;;6.07;;
8187;SDS011;4135;49.184;9.722;2022-07-30T04:41:34;7.45;;;5.93;;
8187;SDS011;4135;49.184;9.722;2022-07-30T04:44:04;12.98;;;6.70;;
8187;SDS011;4135;49.184;9.722;2022-07-30T04:46:34;9.18;;;6.43;;
8187;SDS011;4135;49.184;9.722;2022-07-30T04:49:03;7.38;;;5.93;;
8187;SDS011;4135;49.184;9.722;2022-07-30T04:51:33;8.48;;;5.80;;
8187;SDS011;4135;49.184;9.722;2022-07-30T04:54:05;7.07;;;5.88;;
8187;SDS011;4135;49.184;9.722;2022-07-30T04:56:37;11.15;;;5.72;;
8187;SDS011;4135;49.184;9.722;2022-07-30T04:59:08;8.40;;;6.18;;
8187;SDS011;4135;49.184;9.722;2022-07-30T05:01:38;7.50;;;5.63;;
8187;SDS011;4135;49.184;9.722;2022-07-30T05:04:10;7.63;;;5.70;;
8187;SDS011;4135;49.184;9.722;2022-07-30T05:06:41;9.23;;;5.95;;
8187;SDS011;4135;49.184;9.722;2022-07-30T05:09:13;7.70;;;5.07;;
8187;SDS011;4135;49.184;9.722;2022-07-30T05:11:50;8.40;;;5.35;;
8187;SDS011;4135;49.184;9.722;2022-07-30T05:14:21;8.98;;;6.30;;
8187;SDS011;4135;49.184;9.722;2022-07-30T05:16:51;6.90;;;5.28;;
8187;SDS011;4135;49.184;9.722;2022-07-30T05:19:22;8.88;;;5.65;;
8187;SDS011;4135;49.184;9.722;2022-07-30T05:21:53;9.75;;;5.97;;
8187;SDS011;4135;49.184;9.722;2022-07-30T05:24:22;11.50;;;6.28;;
8187;SDS011;4135;49.184;9.722;2022-07-30T05:26:52;8.07;;;5.72;;
8187;SDS011;4135;49.184;9.722;2022-07-30T05:29:21;7.85;;;6.07;;
8187;SDS011;4135;49.184;9.722;2022-07-30T05:31:51;11.30;;;5.97;;
8187;SDS011;4135;49.184;9.722;2022-07-30T05:34:20;8.90;;;6.50;;
8187;SDS011;4135;49.184;9.722;2022-07-30T05:36:50;9.10;;;6.20;;
8187;SDS011;4135;49.184;9.722;2022-07-30T05:39:19;9.15;;;5.30;;
8187;SDS011;4135;49.184;9.722;2022-07-30T05:41:49;8.73;;;6.10;;
8187;SDS011;4135;49.184;9.722;2022-07-30T05:44:19;7.30;;;5.68;;
8187;SDS011;4135;49.184;9.722;2022-07-30T05:46:48;7.93;;;5.93;;
8187;SDS011;4135;49.184;9.722;2022-07-30T05:49:18;8.98;;;5.65;;
8187;SDS011;4135;49.184;9.722;2022-07-30T05:51:48;8.88;;;5.38;;
8187;SDS011;4135;49.184;9.722;2022-07-30T05:54:17;8.48;;;5.50;;
8187;SDS011;4135;49.184;9.722;2022-07-30T05:56:47;11.18;;;7.95;;
8187;SDS011;4135;49.184;9.722;2022-07-30T05:59:16;15.23;;;8.15;;
8187;SDS011;4135;49.184;9.722;2022-07-30T06:01:46;12.80;;;8.32;;
8187;SDS011;4135;49.184;9.722;2022-07-30T06:04:15;12.05;;;7.70;;
8187;SDS011;4135;49.184;9.722;2022-07-30T06:06:45;11.15;;;7.07;;
8187;SDS011;4135;49.184;9.722;2022-07-30T06:09:14;9.85;;;5.65;;
8187;SDS011;4135;49.184;9.722;2022-07-30T06:11:44;9.75;;;6.40;;
8187;SDS011;4135;49.184;9.722;2022-07-30T06:14:13;10.68;;;5.68;;
8187;SDS011;4135;49.184;9.722;2022-07-30T06:16:43;5.68;;;4.55;;
8187;SDS011;4135;49.184;9.722;2022-07-30T06:19:12;7.75;;;5.07;;
8187;SDS011;4135;49.184;9.722;2022-07-30T06:21:42;8.57;;;5.30;;
8187;SDS011;4135;49.184;9.722;2022-07-30T06:24:11;7.95;;;5.45;;
8187;SDS011;4135;49.184;9.722;2022-07-30T06:26:41;6.75;;;4.80;;
8187;SDS011;4135;49.184;9.722;2022-07-30T06:29:10;7.00;;;4.80;;
8187;SDS011;4135;49.184;9.722;2022-07-30T06:31:40;6.90;;;5.03;;
8187;SDS011;4135;49.184;9.722;2022-07-30T06:34:09;5.63;;;4.45;;
8187;SDS011;4135;49.184;9.722;2022-07-30T06:36:39;9.25;;;4.43;;
8187;SDS011;4135;49.184;9.722;2022-07-30T06:39:08;6.60;;;4.70;;
8187;SDS011;4135;49.184;9.722;2022-07-30T06:41:38;6.50;;;4.95;;
8187;SDS011;4135;49.184;9.722;2022-07-30T06:44:07;8.40;;;4.65;;
8187;SDS011;4135;49.184;9.722;2022-07-30T06:46:37;8.23;;;4.53;;
8187;SDS011;4135;49.184;9.722;2022-07-30T06:49:06;7.35;;;4.00;;
8187;SDS011;4135;49.184;9.722;2022-07-30T06:51:36;5.65;;;4.05;;
8187;SDS011;4135;49.184;9.722;2022-07-30T06:54:06;6.25;;;4.55;;
8187;SDS011;4135;49.184;9.722;2022-07-30T06:56:36;5.22;;;4.18;;
8187;SDS011;4135;49.184;9.722;2022-07-30T06:59:05;5.50;;;3.80;;
8187;SDS011;4135;49.184;9.722;2022-07-30T07:01:35;8.05;;;4.47;;
8187;SDS011;4135;49.184;9.722;2022-07-30T07:04:04;8.15;;;3.88;;
8187;SDS011;4135;49.184;9.722;2022-07-30T07:06:34;7.07;;;3.90;;
8187;SDS011;4135;49.184;9.722;2022-07-30T07:09:04;5.93;;;3.95;;
8187;SDS011;4135;49.184;9.722;2022-07-30T07:11:34;5.45;;;3.92;;
8187;SDS011;4135;49.184;9.722;2022-07-30T07:14:03;8.27;;;3.47;;
8187;SDS011;4135;49.184;9.722;2022-07-30T07:16:32;5.70;;;3.85;;
8187;SDS011;4135;49.184;9.722;2022-07-30T07:19:02;6.22;;;3.55;;
8187;SDS011;4135;49.184;9.722;2022-07-30T07:21:32;4.00;;;3.05;;
8187;SDS011;4135;49.184;9.722;2022-07-30T07:24:01;5.88;;;4.13;;
8187;SDS011;4135;49.184;9.722;2022-07-30T07:26:31;6.03;;;4.03;;
8187;SDS011;4135;49.184;9.722;2022-07-30T07:29:00;5.70;;;3.75;;
8187;SDS011;4135;49.184;9.722;2022-07-30T07:31:30;5.88;;;4.60;;
8187;SDS011;4135;49.184;9.722;2022-07-30T07:33:59;7.43;;;4.85;;
8187;SDS011;4135;49.184;9.722;2022-07-30T07:36:29;8.20;;;4.65;;
8187;SDS011;4135;49.184;9.722;2022-07-30T07:38:58;8.15;;;4.25;;
8187;SDS011;4135;49.184;9.722;2022-07-30T07:41:28;7.90;;;4.13;;
8187;SDS011;4135;49.184;9.722;2022-07-30T07:43:58;8.82;;;5.20;;
8187;SDS011;4135;49.184;9.722;2022-07-30T07:46:27;5.88;;;5.25;;
8187;SDS011;4135;49.184;9.722;2022-07-30T07:48:57;6.88;;;4.25;;
8187;SDS011;4135;49.184;9.722;2022-07-30T07:51:26;7.25;;;4.22;;
8187;SDS011;4135;49.184;9.722;2022-07-30T07:53:56;4.90;;;3.70;;
8187;SDS011;4135;49.184;9.722;2022-07-30T07:56:25;8.82;;;3.92;;
8187;SDS011;4135;49.184;9.722;2022-07-30T07:58:55;4.68;;;3.58;;
8187;SDS011;4135;49.184;9.722;2022-07-30T08:01:25;6.57;;;3.63;;
8187;SDS011;4135;49.184;9.722;2022-07-30T08:03:55;5.10;;;3.08;;
8187;SDS011;4135;49.184;9.722;2022-07-30T08:06:24;7.13;;;4.38;;
8187;SDS011;4135;49.184;9.722;2022-07-30T08:08:54;4.85;;;3.08;;
8187;SDS011;4135;49.184;9.722;2022-07-30T08:11:23;6.63;;;3.63;;
8187;SDS011;4135;49.184;9.722;2022-07-30T08:13:53;9.05;;;3.65;;
8187;SDS011;4135;49.184;9.722;2022-07-30T08:16:22;8.07;;;4.10;;
8187;SDS011;4135;49.184;9.722;2022-07-30T08:18:52;6.25;;;3.97;;
8187;SDS011;4135;49.184;9.722;2022-07-30T08:21:22;5.25;;;3.17;;
8187;SDS011;4135;49.184;9.722;2022-07-30T08:23:51;7.38;;;3.47;;
8187;SDS011;4135;49.184;9.722;2022-07-30T08:26:21;7.20;;;3.35;;
8187;SDS011;4135;49.184;9.722;2022-07-30T08:28:50;6.43;;;3.67;;
8187;SDS011;4135;49.184;9.722;2022-07-30T08:31:20;6.32;;;3.53;;
8187;SDS011;4135;49.184;9.722;2022-07-30T08:33:49;5.80;;;3.70;;
8187;SDS011;4135;49.184;9.722;2022-07-30T08:36:19;5.22;;;3.28;;
8187;SDS011;4135;49.184;9.722;2022-07-30T08:38:48;6.43;;;3.70;;
8187;SDS011;4135;49.184;9.722;2022-07-30T08:41:19;5.50;;;3.72;;
8187;SDS011;4135;49.184;9.722;2022-07-30T08:43:49;4.75;;;3.40;;
8187;SDS011;4135;49.184;9.722;2022-07-30T08:46:19;5.63;;;3.85;;
8187;SDS011;4135;49.184;9.722;2022-07-30T08:48:52;4.00;;;3.33;;
8187;SDS011;4135;49.184;9.722;2022-07-30T08:51:22;4.18;;;2.67;;
8187;SDS011;4135;49.184;9.722;2022-07-30T08:53:52;5.55;;;3.38;;
8187;SDS011;4135;49.184;9.722;2022-07-30T08:56:24;5.38;;;3.30;;
8187;SDS011;4135;49.184;9.722;2022-07-30T08:58:53;6.40;;;3.53;;
8187;SDS011;4135;49.184;9.722;2022-07-30T09:01:24;4.65;;;2.80;;
8187;SDS011;4135;49.184;9.722;2022-07-30T09:03:53;4.82;;;3.25;;
8187;SDS011;4135;49.184;9.722;2022-07-30T09:06:23;6.57;;;3.42;;
8187;SDS011;4135;49.184;9.722;2022-07-30T09:08:52;6.70;;;3.45;;
8187;SDS011;4135;49.184;9.722;2022-07-30T09:11:22;6.78;;;3.33;;
8187;SDS011;4135;49.184;9.722;2022-07-30T09:13:52;6.47;;;3.40;;
8187;SDS011;4135;49.184;9.722;2022-07-30T09:16:22;5.95;;;3.85;;
8187;SDS011;4135;49.184;9.722;2022-07-30T09:18:54;6.78;;;3.55;;
8187;SDS011;4135;49.184;9.722;2022-07-30T09:21:25;5.80;;;3.33;;
8187;SDS011;4135;49.184;9.722;2022-07-30T09:23:58;9.48;;;3.53;;
8187;SDS011;4135;49.184;9.722;2022-07-30T09:26:30;4.13;;;3.08;;
8187;SDS011;4135;49.184;9.722;2022-07-30T09:29:13;12.00;;;3.85;;
8187;SDS011;4135;49.184;9.722;2022-07-30T09:34:33;3.88;;;3.30;;
8187;SDS011;4135;49.184;9.722;2022-07-30T09:39:38;5.65;;;3.50;;
8187;SDS011;4135;49.184;9.722;2022-07-30T09:42:19;6.00;;;3.38;;
8187;SDS011;4135;49.184;9.722;2022-07-30T09:44:51;4.47;;;4.00;;
8187;SDS011;4135;49.184;9.722;2022-07-30T09:47:33;5.50;;;3.20;;
8187;SDS011;4135;49.184;9.722;2022-07-30T09:50:05;6.13;;;3.67;;
8187;SDS011;4135;49.184;9.722;2022-07-30T09:52:43;7.95;;;3.33;;
8187;SDS011;4135;49.184;9.722;2022-07-30T09:55:14;5.50;;;3.45;;
8187;SDS011;4135;49.184;9.722;2022-07-30T09:58:04;8.45;;;3.38;;
8187;SDS011;4135;49.184;9.722;2022-07-30T10:00:34;3.95;;;2.85;;
8187;SDS011;4135;49.184;9.722;2022-07-30T10:03:22;3.90;;;2.97;;
8187;SDS011;4135;49.184;9.722;2022-07-30T10:05:55;3.10;;;2.65;;
8187;SDS011;4135;49.184;9.722;2022-07-30T10:08:38;7.57;;;3.40;;
8187;SDS011;4135;49.184;9.722;2022-07-30T10:11:20;4.75;;;2.80;;
8187;SDS011;4135;49.184;9.722;2022-07-30T10:13:54;5.50;;;2.67;;
8187;SDS011;4135;49.184;9.722;2022-07-30T10:16:25;3.90;;;2.47;;
8187;SDS011;4135;49.184;9.722;2022-07-30T10:18:59;5.82;;;2.40;;
8187;SDS011;4135;49.184;9.722;2022-07-30T10:21:29;5.43;;;2.80;;
8187;SDS011;4135;49.184;9.722;2022-07-30T10:23:59;4.28;;;2.65;;
8187;SDS011;4135;49.184;9.722;2022-07-30T10:26:31;6.75;;;2.35;;
8187;SDS011;4135;49.184;9.722;2022-07-30T10:29:03;5.78;;;2.50;;
8187;SDS011;4135;49.184;9.722;2022-07-30T10:31:33;2.35;;;2.10;;
8187;SDS011;4135;49.184;9.722;2022-07-30T10:34:03;3.47;;;2.33;;
8187;SDS011;4135;49.184;9.722;2022-07-30T10:36:33;3.72;;;2.55;;
8187;SDS011;4135;49.184;9.722;2022-07-30T10:39:03;3.47;;;2.30;;
8187;SDS011;4135;49.184;9.722;2022-07-30T10:47:15;5.00;;;3.00;;
8187;SDS011;4135;49.184;9.722;2022-07-30T10:52:44;3.40;;;2.17;;
8187;SDS011;4135;49.184;9.722;2022-07-30T10:55:24;4.38;;;2.53;;
8187;SDS011;4135;49.184;9.722;2022-07-30T10:58:09;3.85;;;2.47;;
8187;SDS011;4135;49.184;9.722;2022-07-30T11:03:20;5.15;;;2.75;;
8187;SDS011;4135;49.184;9.722;2022-07-30T11:06:22;2.90;;;2.20;;
8187;SDS011;4135;49.184;9.722;2022-07-30T11:08:44;3.80;;;2.83;;
8187;SDS011;4135;49.184;9.722;2022-07-30T11:13:52;2.35;;;2.17;;
8187;SDS011;4135;49.184;9.722;2022-07-30T11:24:59;2.50;;;2.35;;
8187;SDS011;4135;49.184;9.722;2022-07-30T11:27:33;9.13;;;3.03;;
8187;SDS011;4135;49.184;9.722;2022-07-30T11:32:48;4.13;;;2.97;;
8187;SDS011;4135;49.184;9.722;2022-07-30T11:38:00;5.00;;;3.58;;
8187;SDS011;4135;49.184;9.722;2022-07-30T11:43:16;4.05;;;3.05;;
8187;SDS011;4135;49.184;9.722;2022-07-30T11:45:47;3.35;;;2.90;;
8187;SDS011;4135;49.184;9.722;2022-07-30T11:48:20;4.25;;;3.05;;
8187;SDS011;4135;49.184;9.722;2022-07-30T11:50:50;3.03;;;2.35;;
8187;SDS011;4135;49.184;9.722;2022-07-30T11:53:23;4.55;;;2.38;;
8187;SDS011;4135;49.184;9.722;2022-07-30T11:55:54;8.00;;;2.97;;
8187;SDS011;4135;49.184;9.722;2022-07-30T11:58:29;8.55;;;2.80;;
8187;SDS011;4135;49.184;9.722;2022-07-30T12:01:02;7.30;;;3.30;;
8187;SDS011;4135;49.184;9.722;2022-07-30T12:03:33;14.68;;;4.88;;
8187;SDS011;4135;49.184;9.722;2022-07-30T12:06:10;4.93;;;3.13;;
8187;SDS011;4135;49.184;9.722;2022-07-30T12:08:48;11.48;;;3.83;;
8187;SDS011;4135;49.184;9.722;2022-07-30T12:11:20;6.45;;;3.20;;
8187;SDS011;4135;49.184;9.722;2022-07-30T12:13:57;9.90;;;3.55;;
8187;SDS011;4135;49.184;9.722;2022-07-30T12:16:28;6.32;;;3.38;;
8187;SDS011;4135;49.184;9.722;2022-07-30T12:19:05;5.50;;;2.85;;
8187;SDS011;4135;49.184;9.722;2022-07-30T12:21:35;5.65;;;2.47;;
8187;SDS011;4135;49.184;9.722;2022-07-30T12:24:05;6.85;;;3.47;;
8187;SDS011;4135;49.184;9.722;2022-07-30T12:26:41;7.13;;;2.78;;
8187;SDS011;4135;49.184;9.722;2022-07-30T12:29:11;5.40;;;2.55;;
8187;SDS011;4135;49.184;9.722;2022-07-30T12:31:43;5.15;;;2.67;;
8187;SDS011;4135;49.184;9.722;2022-07-30T12:34:20;3.85;;;2.65;;
8187;SDS011;4135;49.184;9.722;2022-07-30T12:36:52;2.25;;;2.03;;
8187;SDS011;4135;49.184;9.722;2022-07-30T12:39:23;3.38;;;2.85;;
8187;SDS011;4135;49.184;9.722;2022-07-30T12:41:55;3.75;;;2.70;;
8187;SDS011;4135;49.184;9.722;2022-07-30T12:47:28;4.50;;;3.00;;
8187;SDS011;4135;49.184;9.722;2022-07-30T12:49:59;4.07;;;2.65;;
8187;SDS011;4135;49.184;9.722;2022-07-30T12:52:33;2.53;;;2.35;;
8187;SDS011;4135;49.184;9.722;2022-07-30T13:00:27;4.38;;;2.13;;
8187;SDS011;4135;49.184;9.722;2022-07-30T13:02:58;2.28;;;2.05;;
8187;SDS011;4135;49.184;9.722;2022-07-30T13:05:41;2.97;;;2.30;;
8187;SDS011;4135;49.184;9.722;2022-07-30T13:08:17;2.33;;;2.13;;
8187;SDS011;4135;49.184;9.722;2022-07-30T13:10:54;4.50;;;2.58;;
8187;SDS011;4135;49.184;9.722;2022-07-30T13:13:23;3.15;;;2.55;;
8187;SDS011;4135;49.184;9.722;2022-07-30T13:16:02;3.17;;;2.17;;
8187;SDS011;4135;49.184;9.722;2022-07-30T13:18:34;3.72;;;2.20;;
8187;SDS011;4135;49.184;9.722;2022-07-30T13:21:04;3.15;;;2.50;;
8187;SDS011;4135;49.184;9.722;2022-07-30T13:23:37;2.13;;;1.95;;
8187;SDS011;4135;49.184;9.722;2022-07-30T13:26:08;3.72;;;2.33;;
8187;SDS011;4135;49.184;9.722;2022-07-30T13:28:38;3.28;;;2.47;;
8187;SDS011;4135;49.184;9.722;2022-07-30T13:31:08;3.13;;;1.90;;
8187;SDS011;4135;49.184;9.722;2022-07-30T13:33:38;3.17;;;1.83;;
8187;SDS011;4135;49.184;9.722;2022-07-30T13:36:08;1.95;;;1.85;;
8187;SDS011;4135;49.184;9.722;2022-07-30T13:38:37;2.58;;;2.40;;
8187;SDS011;4135;49.184;9.722;2022-07-30T13:41:07;2.55;;;2.38;;
8187;SDS011;4135;49.184;9.722;2022-07-30T13:43:37;2.38;;;2.10;;
8187;SDS011;4135;49.184;9.722;2022-07-30T13:46:06;2.83;;;1.85;;
8187;SDS011;4135;49.184;9.722;2022-07-30T13:48:36;3.58;;;2.25;;
8187;SDS011;4135;49.184;9.722;2022-07-30T13:51:05;2.50;;;1.88;;
8187;SDS011;4135;49.184;9.722;2022-07-30T13:53:35;5.55;;;2.03;;
8187;SDS011;4135;49.184;9.722;2022-07-30T13:56:05;4.10;;;2.40;;
8187;SDS011;4135;49.184;9.722;2022-07-30T13:58:34;2.42;;;1.98;;
8187;SDS011;4135;49.184;9.722;2022-07-30T14:01:04;2.10;;;1.85;;
8187;SDS011;4135;49.184;9.722;2022-07-30T14:03:34;3.22;;;2.05;;
8187;SDS011;4135;49.184;9.722;2022-07-30T14:06:04;2.40;;;1.77;;
8187;SDS011;4135;49.184;9.722;2022-07-30T14:08:33;3.80;;;1.88;;
8187;SDS011;4135;49.184;9.722;2022-07-30T14:11:03;2.42;;;2.17;;
8187;SDS011;4135;49.184;9.722;2022-07-30T14:13:33;2.53;;;1.98;;
8187;SDS011;4135;49.184;9.722;2022-07-30T14:16:02;5.32;;;2.70;;
8187;SDS011;4135;49.184;9.722;2022-07-30T14:18:32;3.40;;;2.08;;
8187;SDS011;4135;49.184;9.722;2022-07-30T14:21:02;3.10;;;2.20;;
8187;SDS011;4135;49.184;9.722;2022-07-30T14:23:32;1.77;;;1.70;;
8187;SDS011;4135;49.184;9.722;2022-07-30T14:26:02;2.28;;;2.03;;
8187;SDS011;4135;49.184;9.722;2022-07-30T14:28:31;3.30;;;2.20;;
8187;SDS011;4135;49.184;9.722;2022-07-30T14:31:01;2.88;;;2.38;;
8187;SDS011;4135;49.184;9.722;2022-07-30T14:33:31;2.80;;;1.67;;
8187;SDS011;4135;49.184;9.722;2022-07-30T14:36:01;1.80;;;1.70;;
8187;SDS011;4135;49.184;9.722;2022-07-30T14:38:30;2.53;;;2.00;;
8187;SDS011;4135;49.184;9.722;2022-07-30T14:41:00;3.17;;;2.33;;
8187;SDS011;4135;49.184;9.722;2022-07-30T14:43:29;3.22;;;2.30;;
8187;SDS011;4135;49.184;9.722;2022-07-30T14:45:59;2.80;;;2.00;;
8187;SDS011;4135;49.184;9.722;2022-07-30T14:48:28;3.20;;;2.20;;
8187;SDS011;4135;49.184;9.722;2022-07-30T14:50:58;2.70;;;2.50;;
8187;SDS011;4135;49.184;9.722;2022-07-30T14:53:29;3.40;;;2.20;;
8187;SDS011;4135;49.184;9.722;2022-07-30T14:55:59;3.20;;;2.40;;
8187;SDS011;4135;49.184;9.722;2022-07-30T14:58:29;1.85;;;1.83;;
8187;SDS011;4135;49.184;9.722;2022-07-30T15:00:58;1.95;;;1.88;;
8187;SDS011;4135;49.184;9.722;2022-07-30T15:03:28;2.53;;;2.10;;
8187;SDS011;4135;49.184;9.722;2022-07-30T15:05:57;3.75;;;2.03;;
8187;SDS011;4135;49.184;9.722;2022-07-30T15:08:27;5.28;;;2.00;;
8187;SDS011;4135;49.184;9.722;2022-07-30T15:10:57;3.53;;;2.50;;
8187;SDS011;4135;49.184;9.722;2022-07-30T15:13:27;2.15;;;1.88;;
8187;SDS011;4135;49.184;9.722;2022-07-30T15:15:56;2.17;;;1.70;;
8187;SDS011;4135;49.184;9.722;2022-07-30T15:18:26;2.50;;;1.63;;
8187;SDS011;4135;49.184;9.722;2022-07-30T15:20:55;2.30;;;2.10;;
8187;SDS011;4135;49.184;9.722;2022-07-30T15:23:25;1.83;;;1.73;;
8187;SDS011;4135;49.184;9.722;2022-07-30T15:25:54;2.60;;;2.08;;
8187;SDS011;4135;49.184;9.722;2022-07-30T15:28:24;1.88;;;1.83;;
8187;SDS011;4135;49.184;9.722;2022-07-30T15:30:53;1.70;;;1.60;;
8187;SDS011;4135;49.184;9.722;2022-07-30T15:33:23;3.53;;;1.88;;
8187;SDS011;4135;49.184;9.722;2022-07-30T15:35:53;2.13;;;1.90;;
8187;SDS011;4135;49.184;9.722;2022-07-30T15:38:23;3.25;;;2.33;;
8187;SDS011;4135;49.184;9.722;2022-07-30T15:40:52;1.50;;;1.30;;
8187;SDS011;4135;49.184;9.722;2022-07-30T15:43:22;4.03;;;1.88;;
8187;SDS011;4135;49.184;9.722;2022-07-30T15:45:51;9.77;;;2.78;;
8187;SDS011;4135;49.184;9.722;2022-07-30T15:48:21;3.72;;;2.22;;
8187;SDS011;4135;49.184;9.722;2022-07-30T15:51:01;2.90;;;2.40;;
8187;SDS011;4135;49.184;9.722;2022-07-30T15:53:31;4.05;;;2.58;;
8187;SDS011;4135;49.184;9.722;2022-07-30T15:56:01;3.35;;;2.10;;
8187;SDS011;4135;49.184;9.722;2022-07-30T15:58:31;2.63;;;2.13;;
8187;SDS011;4135;49.184;9.722;2022-07-30T16:01:00;2.00;;;1.77;;
8187;SDS011;4135;49.184;9.722;2022-07-30T16:03:31;3.65;;;2.22;;
8187;SDS011;4135;49.184;9.722;2022-07-30T16:06:00;2.70;;;1.67;;
8187;SDS011;4135;49.184;9.722;2022-07-30T16:08:29;2.90;;;2.40;;
8187;SDS011;4135;49.184;9.722;2022-07-30T16:10:59;5.13;;;2.25;;
8187;SDS011;4135;49.184;9.722;2022-07-30T16:13:31;2.78;;;2.15;;
8187;SDS011;4135;49.184;9.722;2022-07-30T16:16:01;2.72;;;1.83;;
8187;SDS011;4135;49.184;9.722;2022-07-30T16:18:30;2.80;;;1.60;;
8187;SDS011;4135;49.184;9.722;2022-07-30T16:21:00;4.35;;;2.20;;
8187;SDS011;4135;49.184;9.722;2022-07-30T16:23:29;1.88;;;1.88;;
8187;SDS011;4135;49.184;9.722;2022-07-30T16:25:59;4.15;;;2.15;;